Time;durP1;ratioP1;P1;durP2;ratioP2;P2;SDS_P1;SDS_P2;PMS_P1;PMS_P2;Temp;Humidity;BMP_temperature;BMP_pressure;BME280_temperature;BME280_humidity;BME280_pressure;Samples;Min_cycle;Max_cycle;Signal;HPM_P1;HPM_P2
2022/11/01 00:00:22;;;;;;;23.00;11.90;;;;;;;;;;5117720;27;20407;-79
2022/11/01 00:02:48;;;;;;;25.52;11.50;;;;;;;;;;5118057;27;20515;-79
2022/11/01 00:05:15;;;;;;;21.42;10.80;;;;;;;;;;5098469;27;20043;-78
2022/11/01 00:07:41;;;;;;;22.92;10.18;;;;;;;;;;5095831;28;20043;-79
2022/11/01 00:10:07;;;;;;;21.75;10.10;;;;;;;;;;5103711;27;20095;-72
2022/11/01 00:12:33;;;;;;;22.10;10.85;;;;;;;;;;5101175;27;20479;-72
2022/11/01 00:14:59;;;;;;;22.38;9.65;;;;;;;;;;5116244;27;20047;-72
2022/11/01 00:17:26;;;;;;;20.23;9.52;;;;;;;;;;5128919;27;20118;-72
2022/11/01 00:19:52;;;;;;;17.80;9.90;;;;;;;;;;5094126;28;20032;-72
2022/11/01 00:22:20;;;;;;;19.30;10.35;;;;;;;;;;5118191;27;20051;-72
2022/11/01 00:24:47;;;;;;;24.42;10.05;;;;;;;;;;5102075;27;20057;-72
2022/11/01 00:27:13;;;;;;;21.42;9.38;;;;;;;;;;5095793;28;20138;-72
2022/11/01 00:29:39;;;;;;;18.58;9.63;;;;;;;;;;5105048;27;20486;-72
2022/11/01 00:32:05;;;;;;;18.08;9.27;;;;;;;;;;5125732;27;20027;-70
2022/11/01 00:34:31;;;;;;;21.10;9.93;;;;;;;;;;5124482;27;20057;-70
2022/11/01 00:36:58;;;;;;;18.90;9.70;;;;;;;;;;5100698;28;20410;-76
2022/11/01 00:39:24;;;;;;;23.58;9.98;;;;;;;;;;5143963;27;20035;-77
2022/11/01 00:41:50;;;;;;;19.10;9.05;;;;;;;;;;5138335;27;20038;-77
2022/11/01 00:44:16;;;;;;;23.05;7.93;;;;;;;;;;5118347;27;20038;-76
2022/11/01 00:46:42;;;;;;;18.38;8.90;;;;;;;;;;5134680;27;20148;-78
2022/11/01 00:49:08;;;;;;;17.08;7.32;;;;;;;;;;5114681;27;20081;-75
2022/11/01 00:51:34;;;;;;;17.25;7.70;;;;;;;;;;5114893;28;20050;-80
2022/11/01 00:54:00;;;;;;;16.95;7.38;;;;;;;;;;5115779;28;20041;-75
2022/11/01 00:56:26;;;;;;;16.77;7.57;;;;;;;;;;5098497;28;20116;-76
2022/11/01 00:58:52;;;;;;;19.45;8.13;;;;;;;;;;5118397;28;20060;-77
2022/11/01 01:01:18;;;;;;;15.63;7.78;;;;;;;;;;5098590;28;20043;-74
2022/11/01 01:03:44;;;;;;;16.83;7.45;;;;;;;;;;5139098;27;20060;-77
2022/11/01 01:06:10;;;;;;;15.73;7.80;;;;;;;;;;5136164;27;20031;-75
2022/11/01 01:08:36;;;;;;;16.52;7.53;;;;;;;;;;5135579;27;20084;-77
2022/11/01 01:11:02;;;;;;;13.85;7.63;;;;;;;;;;5118750;27;20122;-77
2022/11/01 01:13:28;;;;;;;18.45;8.23;;;;;;;;;;5118194;27;20035;-77
2022/11/01 01:15:56;;;;;;;14.85;7.13;;;;;;;;;;5091367;27;20051;-75
2022/11/01 01:18:22;;;;;;;17.42;7.95;;;;;;;;;;5128049;27;20047;-76
2022/11/01 01:20:48;;;;;;;17.13;7.90;;;;;;;;;;5132321;27;20083;-75
2022/11/01 01:23:14;;;;;;;13.23;7.50;;;;;;;;;;5101913;27;20487;-70
2022/11/01 01:25:41;;;;;;;15.60;7.35;;;;;;;;;;5112872;27;20447;-70
2022/11/01 01:28:08;;;;;;;19.42;7.68;;;;;;;;;;5091261;27;20046;-70
2022/11/01 01:30:34;;;;;;;15.35;6.93;;;;;;;;;;5120958;27;20047;-70
2022/11/01 01:33:00;;;;;;;11.57;6.70;;;;;;;;;;5125483;27;20506;-77
2022/11/01 01:35:26;;;;;;;16.83;7.78;;;;;;;;;;5128570;27;20408;-77
2022/11/01 01:37:52;;;;;;;14.18;7.10;;;;;;;;;;5116563;27;20108;-77
2022/11/01 01:40:18;;;;;;;18.95;6.90;;;;;;;;;;5131973;27;20039;-77
2022/11/01 01:42:46;;;;;;;14.10;6.95;;;;;;;;;;5125956;27;20485;-76
2022/11/01 01:45:15;;;;;;;17.25;6.80;;;;;;;;;;5123313;27;20081;-77
2022/11/01 01:47:42;;;;;;;18.52;6.85;;;;;;;;;;5113942;27;20047;-77
2022/11/01 01:50:13;;;;;;;18.88;7.35;;;;;;;;;;5119399;27;20487;-76
2022/11/01 01:52:58;;;;;;;14.45;6.88;;;;;;;;;;5122524;27;20079;-77
2022/11/01 01:55:26;;;;;;;19.45;6.65;;;;;;;;;;5121058;27;20548;-70
2022/11/01 01:57:54;;;;;;;16.55;6.72;;;;;;;;;;5118765;27;20035;-70
2022/11/01 02:00:20;;;;;;;17.08;6.90;;;;;;;;;;5100378;27;20035;-70
2022/11/01 02:02:46;;;;;;;13.43;6.40;;;;;;;;;;5117159;27;20039;-78
2022/11/01 02:05:19;;;;;;;12.70;6.55;;;;;;;;;;5126414;27;20068;-77
2022/11/01 02:07:45;;;;;;;12.45;6.47;;;;;;;;;;5109479;27;20070;-76
2022/11/01 02:10:13;;;;;;;22.40;7.45;;;;;;;;;;5136273;27;20039;-76
2022/11/01 02:12:44;;;;;;;15.38;6.72;;;;;;;;;;5116924;27;20040;-77
2022/11/01 02:15:12;;;;;;;11.23;6.80;;;;;;;;;;5118212;27;20388;-77
2022/11/01 02:17:41;;;;;;;15.85;6.45;;;;;;;;;;5102130;27;20027;-78
2022/11/01 02:20:15;;;;;;;15.65;6.70;;;;;;;;;;5101115;27;20039;-77
2022/11/01 02:22:44;;;;;;;17.75;6.45;;;;;;;;;;5121588;27;20160;-76
2022/11/01 02:25:29;;;;;;;15.63;6.43;;;;;;;;;;5122889;27;20035;-77
2022/11/01 02:28:14;;;;;;;12.05;6.43;;;;;;;;;;5112958;27;20509;-76
2022/11/01 02:30:46;;;;;;;12.15;6.38;;;;;;;;;;5105329;27;20392;-75
2022/11/01 02:33:25;;;;;;;13.73;6.75;;;;;;;;;;5118414;27;20587;-77
2022/11/01 02:35:55;;;;;;;14.27;6.68;;;;;;;;;;5108350;27;20031;-77
2022/11/01 02:38:38;;;;;;;16.85;6.78;;;;;;;;;;5105432;27;20051;-77
2022/11/01 02:41:13;;;;;;;21.15;6.75;;;;;;;;;;5117887;27;20387;-78
2022/11/01 02:43:46;;;;;;;13.73;6.75;;;;;;;;;;5121848;27;20046;-77
2022/11/01 02:48:58;;;;;;;12.63;6.50;;;;;;;;;;5116392;27;20391;-77
2022/11/01 02:51:25;;;;;;;13.40;6.20;;;;;;;;;;5126212;27;20070;-77
2022/11/01 02:53:51;;;;;;;16.10;7.00;;;;;;;;;;5117836;27;20043;-78
2022/11/01 02:56:18;;;;;;;14.65;6.55;;;;;;;;;;5103810;27;20544;-78
2022/11/01 02:58:48;;;;;;;14.90;6.25;;;;;;;;;;5121867;27;20118;-77
2022/11/01 03:01:19;;;;;;;12.70;6.35;;;;;;;;;;5133466;27;20067;-77
2022/11/01 03:03:46;;;;;;;14.10;7.00;;;;;;;;;;5099063;27;20071;-78
2022/11/01 03:06:15;;;;;;;13.63;6.60;;;;;;;;;;5101181;27;20105;-76
2022/11/01 03:08:46;;;;;;;11.45;6.68;;;;;;;;;;5099416;27;20567;-75
2022/11/01 03:11:12;;;;;;;11.57;6.43;;;;;;;;;;5101326;27;20042;-77
2022/11/01 03:13:38;;;;;;;17.15;6.45;;;;;;;;;;5119370;27;20074;-78
2022/11/01 03:16:18;;;;;;;13.93;6.22;;;;;;;;;;5125985;27;20082;-76
2022/11/01 03:18:58;;;;;;;13.25;6.70;;;;;;;;;;5094031;28;20484;-77
2022/11/01 03:21:26;;;;;;;12.93;6.15;;;;;;;;;;5110022;27;20400;-78
2022/11/01 03:24:01;;;;;;;13.00;6.22;;;;;;;;;;5112673;27;20043;-71
2022/11/01 03:26:30;;;;;;;11.73;6.43;;;;;;;;;;5104345;27;20039;-77
2022/11/01 03:28:59;;;;;;;13.00;5.60;;;;;;;;;;5107826;27;20051;-78
2022/11/01 03:31:28;;;;;;;14.25;6.30;;;;;;;;;;5120217;27;20087;-71
2022/11/01 03:33:57;;;;;;;14.48;6.40;;;;;;;;;;5117429;27;20032;-78
2022/11/01 03:36:24;;;;;;;15.30;6.57;;;;;;;;;;5097589;28;20515;-78
2022/11/01 03:38:59;;;;;;;13.00;5.80;;;;;;;;;;5092752;27;20032;-77
2022/11/01 03:41:26;;;;;;;13.55;6.00;;;;;;;;;;5096888;28;20118;-78
2022/11/01 03:43:53;;;;;;;16.00;6.10;;;;;;;;;;5112543;27;20492;-75
2022/11/01 03:46:20;;;;;;;17.23;6.25;;;;;;;;;;5115094;27;20039;-77
2022/11/01 03:48:46;;;;;;;14.10;6.55;;;;;;;;;;5101522;28;20130;-77
2022/11/01 03:51:12;;;;;;;12.48;5.90;;;;;;;;;;5094978;27;20389;-76
2022/11/01 03:53:38;;;;;;;16.00;6.57;;;;;;;;;;5112716;27;20043;-78
2022/11/01 03:56:04;;;;;;;11.20;5.82;;;;;;;;;;5107495;27;20031;-71
2022/11/01 03:58:44;;;;;;;16.95;6.10;;;;;;;;;;5104375;28;20528;-70
2022/11/01 04:01:11;;;;;;;14.20;6.38;;;;;;;;;;5109277;27;20438;-70
2022/11/01 04:03:37;;;;;;;13.88;6.45;;;;;;;;;;5113956;27;20042;-71
2022/11/01 04:06:04;;;;;;;14.50;5.90;;;;;;;;;;5111013;27;20040;-71
2022/11/01 04:08:30;;;;;;;13.60;6.07;;;;;;;;;;5111716;28;20051;-71
2022/11/01 04:10:56;;;;;;;14.60;5.70;;;;;;;;;;5111783;27;20088;-71
2022/11/01 04:13:22;;;;;;;15.13;6.57;;;;;;;;;;5125761;27;20035;-78
2022/11/01 04:21:19;;;;;;;11.60;5.72;;;;;;;;;;5116914;27;20035;-71
2022/11/01 04:23:46;;;;;;;9.00;5.07;;;;;;;;;;5114582;27;20035;-73
2022/11/01 04:26:13;;;;;;;11.27;5.20;;;;;;;;;;5114462;27;20548;-71
2022/11/01 04:28:39;;;;;;;10.00;5.40;;;;;;;;;;5117763;27;20043;-71
2022/11/01 04:31:06;;;;;;;13.63;5.88;;;;;;;;;;5116337;27;20507;-71
2022/11/01 04:33:32;;;;;;;12.25;5.63;;;;;;;;;;5120717;27;20039;-72
2022/11/01 04:35:58;;;;;;;12.30;5.57;;;;;;;;;;5116300;27;20043;-72
2022/11/01 04:38:24;;;;;;;9.85;5.50;;;;;;;;;;5101362;28;20039;-72
2022/11/01 04:40:50;;;;;;;18.90;6.75;;;;;;;;;;5114731;27;20442;-78
2022/11/01 04:43:16;;;;;;;10.65;5.25;;;;;;;;;;5132980;28;20480;-80
2022/11/01 04:45:42;;;;;;;9.57;5.05;;;;;;;;;;5116192;27;20483;-79
2022/11/01 04:48:12;;;;;;;10.38;5.10;;;;;;;;;;5100828;27;20038;-72
2022/11/01 04:50:39;;;;;;;12.82;5.60;;;;;;;;;;5102788;28;20040;-72
2022/11/01 04:53:05;;;;;;;11.75;5.65;;;;;;;;;;5118763;28;20046;-78
2022/11/01 04:55:31;;;;;;;13.23;5.07;;;;;;;;;;5097645;28;20050;-80
2022/11/01 04:57:58;;;;;;;10.40;5.07;;;;;;;;;;5121539;27;20088;-73
2022/11/01 05:00:24;;;;;;;14.27;5.18;;;;;;;;;;5100286;28;20491;-72
2022/11/01 05:02:50;;;;;;;11.25;4.50;;;;;;;;;;5098204;28;20105;-72
2022/11/01 05:05:17;;;;;;;12.80;4.65;;;;;;;;;;5098402;28;20087;-72
2022/11/01 05:07:43;;;;;;;8.50;3.95;;;;;;;;;;5133782;27;20066;-72
2022/11/01 05:10:09;;;;;;;11.75;3.88;;;;;;;;;;5113942;28;20039;-72
2022/11/01 05:12:36;;;;;;;9.10;2.22;;;;;;;;;;5098519;28;20121;-72
2022/11/01 05:15:02;;;;;;;5.55;2.00;;;;;;;;;;5105522;28;20462;-72
2022/11/01 05:17:28;;;;;;;2.95;1.38;;;;;;;;;;5097946;28;20100;-72
2022/11/01 05:19:54;;;;;;;4.75;1.52;;;;;;;;;;5104181;28;20172;-72
2022/11/01 05:22:20;;;;;;;4.28;1.25;;;;;;;;;;5110595;28;20048;-72
2022/11/01 05:24:46;;;;;;;3.75;1.20;;;;;;;;;;5091854;28;20362;-72
2022/11/01 05:27:12;;;;;;;4.30;1.33;;;;;;;;;;5090553;28;20051;-71
2022/11/01 05:29:38;;;;;;;4.40;1.10;;;;;;;;;;5098570;28;20489;-72
2022/11/01 05:32:04;;;;;;;4.45;0.90;;;;;;;;;;5097187;28;20481;-78
2022/11/01 05:34:30;;;;;;;3.78;0.90;;;;;;;;;;5092858;28;20058;-72
2022/11/01 05:36:56;;;;;;;5.75;0.90;;;;;;;;;;5096691;28;20040;-72
2022/11/01 05:39:22;;;;;;;4.50;1.10;;;;;;;;;;5119147;28;20064;-72
2022/11/01 05:41:49;;;;;;;3.80;1.05;;;;;;;;;;5095825;28;20078;-72
2022/11/01 05:44:15;;;;;;;5.18;1.10;;;;;;;;;;5111624;28;20546;-71
2022/11/01 05:46:41;;;;;;;5.18;1.30;;;;;;;;;;5110789;28;20516;-72
2022/11/01 05:49:07;;;;;;;6.25;1.00;;;;;;;;;;5113418;28;20039;-72
2022/11/01 05:51:33;;;;;;;3.72;1.10;;;;;;;;;;5116572;28;20462;-72
2022/11/01 05:53:59;;;;;;;4.60;1.00;;;;;;;;;;5104316;28;20031;-72
2022/11/01 05:56:25;;;;;;;5.53;0.95;;;;;;;;;;5094033;28;20044;-72
2022/11/01 05:58:51;;;;;;;4.32;1.00;;;;;;;;;;5113580;28;20043;-72
2022/11/01 06:01:17;;;;;;;4.70;1.20;;;;;;;;;;5128116;27;20035;-72
2022/11/01 06:03:43;;;;;;;5.30;1.02;;;;;;;;;;5125636;27;20050;-72
2022/11/01 06:06:10;;;;;;;4.07;0.90;;;;;;;;;;5114101;28;20124;-72
2022/11/01 06:08:36;;;;;;;6.25;1.00;;;;;;;;;;5122215;27;20043;-72
2022/11/01 06:11:04;;;;;;;4.15;0.98;;;;;;;;;;5115548;27;20434;-72
2022/11/01 06:13:30;;;;;;;6.28;1.10;;;;;;;;;;5114977;27;20043;-72
2022/11/01 06:15:58;;;;;;;6.50;1.17;;;;;;;;;;5114799;27;20050;-72
2022/11/01 06:18:24;;;;;;;3.33;0.93;;;;;;;;;;5097197;27;20048;-72
2022/11/01 06:20:51;;;;;;;16.00;2.30;;;;;;;;;;5101420;27;20066;-78
2022/11/01 06:23:17;;;;;;;6.68;1.05;;;;;;;;;;5127284;27;20072;-74
2022/11/01 06:25:43;;;;;;;8.40;1.10;;;;;;;;;;5101154;28;20122;-74
2022/11/01 06:28:09;;;;;;;8.27;1.15;;;;;;;;;;5114182;27;20040;-72
2022/11/01 06:30:37;;;;;;;10.45;1.55;;;;;;;;;;5113544;28;20048;-72
2022/11/01 06:33:05;;;;;;;10.32;1.40;;;;;;;;;;5113328;28;20054;-72
2022/11/01 06:35:31;;;;;;;7.70;1.30;;;;;;;;;;5096660;28;20047;-72
2022/11/01 06:38:07;;;;;;;12.40;1.40;;;;;;;;;;5113192;28;20039;-71
2022/11/01 06:40:34;;;;;;;9.15;1.45;;;;;;;;;;5097432;27;20048;-72
2022/11/01 06:43:01;;;;;;;5.72;1.10;;;;;;;;;;5114524;27;20044;-72
2022/11/01 06:45:27;;;;;;;10.30;1.05;;;;;;;;;;5104907;28;20059;-72
2022/11/01 06:47:53;;;;;;;6.93;1.10;;;;;;;;;;5114564;27;20407;-73
2022/11/01 06:50:20;;;;;;;8.43;1.30;;;;;;;;;;5127553;27;20494;-72
2022/11/01 06:52:46;;;;;;;6.45;1.15;;;;;;;;;;5113025;27;20392;-72
2022/11/01 06:55:12;;;;;;;8.18;1.25;;;;;;;;;;5097498;27;20057;-72
2022/11/01 06:57:38;;;;;;;7.68;1.42;;;;;;;;;;5095119;28;20111;-72
2022/11/01 07:00:04;;;;;;;10.90;1.40;;;;;;;;;;5107732;27;20031;-72
2022/11/01 07:02:30;;;;;;;7.78;1.40;;;;;;;;;;5119605;27;20042;-72
2022/11/01 07:04:56;;;;;;;7.70;1.13;;;;;;;;;;5111830;27;20046;-72
2022/11/01 07:07:22;;;;;;;9.05;1.33;;;;;;;;;;5115419;27;20496;-72
2022/11/01 07:09:48;;;;;;;8.75;1.38;;;;;;;;;;5120555;27;20034;-72
2022/11/01 07:12:15;;;;;;;11.75;1.65;;;;;;;;;;5112373;28;20040;-72
2022/11/01 07:14:41;;;;;;;9.07;1.30;;;;;;;;;;5083055;28;20040;-72
2022/11/01 07:17:07;;;;;;;9.85;1.58;;;;;;;;;;5096486;28;20047;-73
2022/11/01 07:19:33;;;;;;;10.45;1.63;;;;;;;;;;5112053;28;20043;-71
2022/11/01 07:21:59;;;;;;;9.30;1.25;;;;;;;;;;5112508;27;20038;-72
2022/11/01 07:24:25;;;;;;;10.82;1.80;;;;;;;;;;5111254;27;20054;-71
2022/11/01 07:26:51;;;;;;;11.52;1.75;;;;;;;;;;5111030;27;20057;-74
2022/11/01 07:29:19;;;;;;;9.55;1.70;;;;;;;;;;5127478;27;20392;-72
2022/11/01 07:31:46;;;;;;;7.18;1.17;;;;;;;;;;5113341;27;20557;-72
2022/11/01 07:34:12;;;;;;;12.52;2.03;;;;;;;;;;5121427;27;20111;-73
2022/11/01 07:36:38;;;;;;;7.10;1.15;;;;;;;;;;5111355;28;20278;-73
2022/11/01 07:39:04;;;;;;;6.97;1.10;;;;;;;;;;5113751;27;20036;-72
2022/11/01 07:41:30;;;;;;;10.95;1.50;;;;;;;;;;5111098;27;20035;-72
2022/11/01 07:43:56;;;;;;;9.32;1.73;;;;;;;;;;5114957;27;20122;-73
2022/11/01 07:46:22;;;;;;;9.65;1.42;;;;;;;;;;5104712;27;20066;-73
2022/11/01 07:48:50;;;;;;;13.80;1.65;;;;;;;;;;5091651;28;20032;-72
2022/11/01 07:51:16;;;;;;;12.40;1.98;;;;;;;;;;5096392;28;20040;-72
2022/11/01 07:53:42;;;;;;;10.05;1.80;;;;;;;;;;5085716;28;20487;-72
2022/11/01 07:56:09;;;;;;;9.75;1.50;;;;;;;;;;5094523;28;20112;-72
2022/11/01 07:58:35;;;;;;;8.32;1.52;;;;;;;;;;5089010;28;20488;-76
2022/11/01 08:01:01;;;;;;;10.40;1.48;;;;;;;;;;5092427;28;20374;-78
2022/11/01 08:03:27;;;;;;;13.60;1.60;;;;;;;;;;5092088;28;20114;-78
2022/11/01 08:05:55;;;;;;;10.50;1.90;;;;;;;;;;5091764;28;20416;-78
2022/11/01 08:08:21;;;;;;;12.20;1.60;;;;;;;;;;5091512;28;20149;-78
2022/11/01 08:10:47;;;;;;;9.48;1.48;;;;;;;;;;5096555;27;20071;-78
2022/11/01 08:13:16;;;;;;;14.27;2.00;;;;;;;;;;5094254;28;20040;-78
2022/11/01 08:15:42;;;;;;;13.88;2.22;;;;;;;;;;5102525;27;20047;-78
2022/11/01 08:18:08;;;;;;;19.80;2.20;;;;;;;;;;5089757;28;20052;-77
2022/11/01 08:20:34;;;;;;;13.10;2.25;;;;;;;;;;5087232;28;20044;-77
2022/11/01 08:23:00;;;;;;;14.43;1.95;;;;;;;;;;5080128;28;20123;-78
2022/11/01 08:25:26;;;;;;;13.38;2.15;;;;;;;;;;5095528;28;20065;-80
2022/11/01 08:27:53;;;;;;;14.85;2.28;;;;;;;;;;5075348;28;20081;-80
2022/11/01 08:30:19;;;;;;;14.05;2.42;;;;;;;;;;5107607;28;20046;-78
2022/11/01 08:32:46;;;;;;;11.18;1.90;;;;;;;;;;5098440;28;20040;-74
2022/11/01 08:35:12;;;;;;;15.80;2.35;;;;;;;;;;5092408;28;20040;-74
2022/11/01 08:37:48;;;;;;;21.05;2.60;;;;;;;;;;5098912;28;20047;-75
2022/11/01 08:40:14;;;;;;;13.90;2.47;;;;;;;;;;5088084;28;20424;-75
2022/11/01 08:42:40;;;;;;;14.07;2.22;;;;;;;;;;5100503;28;20639;-79
2022/11/01 08:45:07;;;;;;;17.13;2.38;;;;;;;;;;5104605;28;20377;-76
2022/11/01 08:47:33;;;;;;;18.20;3.00;;;;;;;;;;5102726;28;20400;-74
2022/11/01 08:49:59;;;;;;;15.50;2.40;;;;;;;;;;5075680;28;20028;-74
2022/11/01 08:52:25;;;;;;;10.80;1.98;;;;;;;;;;5109040;28;20116;-72
2022/11/01 08:54:51;;;;;;;15.13;2.42;;;;;;;;;;5110862;28;20050;-72
2022/11/01 08:57:17;;;;;;;14.38;2.25;;;;;;;;;;5097888;28;20068;-72
2022/11/01 08:59:43;;;;;;;9.32;1.80;;;;;;;;;;5093854;28;20492;-72
2022/11/01 09:02:12;;;;;;;13.20;2.45;;;;;;;;;;5098545;28;20067;-79
2022/11/01 09:04:38;;;;;;;12.50;2.35;;;;;;;;;;5076508;28;20050;-72
2022/11/01 09:07:04;;;;;;;9.60;1.92;;;;;;;;;;5091743;28;20440;-73
2022/11/01 09:09:30;;;;;;;16.30;2.00;;;;;;;;;;5100610;28;20044;-73
2022/11/01 09:11:56;;;;;;;13.50;2.45;;;;;;;;;;5090616;28;20089;-72
2022/11/01 09:14:23;;;;;;;12.23;1.75;;;;;;;;;;5065627;28;20032;-72
2022/11/01 09:16:53;;;;;;;12.40;2.17;;;;;;;;;;5094903;28;20056;-78
2022/11/01 09:19:19;;;;;;;14.23;2.30;;;;;;;;;;5093436;28;20089;-83
2022/11/01 09:21:45;;;;;;;14.90;2.40;;;;;;;;;;5096795;28;20446;-78
2022/11/01 09:24:12;;;;;;;11.60;2.22;;;;;;;;;;5087711;28;20529;-79
2022/11/01 09:26:38;;;;;;;12.40;2.15;;;;;;;;;;5098776;28;20488;-78
2022/11/01 09:29:04;;;;;;;15.95;1.92;;;;;;;;;;5116261;27;20035;-79
2022/11/01 09:31:32;;;;;;;18.65;2.40;;;;;;;;;;5117358;27;20137;-78
2022/11/01 09:33:59;;;;;;;9.85;2.08;;;;;;;;;;5115599;27;20039;-78
2022/11/01 09:36:25;;;;;;;14.48;2.58;;;;;;;;;;5097280;28;20514;-80
2022/11/01 09:38:51;;;;;;;14.13;2.15;;;;;;;;;;5099109;27;20096;-81
2022/11/01 09:41:17;;;;;;;9.57;1.92;;;;;;;;;;5108123;27;20487;-80
2022/11/01 09:43:45;;;;;;;12.50;2.40;;;;;;;;;;5116665;27;20126;-80
2022/11/01 09:46:14;;;;;;;14.23;2.00;;;;;;;;;;5126626;27;20043;-77
2022/11/01 09:48:42;;;;;;;13.55;2.33;;;;;;;;;;5118301;27;20050;-79
2022/11/01 09:51:12;;;;;;;13.48;2.30;;;;;;;;;;5112308;27;20043;-79
2022/11/01 09:53:39;;;;;;;12.88;2.42;;;;;;;;;;5111185;27;20042;-78
2022/11/01 09:56:09;;;;;;;15.07;2.05;;;;;;;;;;5111748;27;20031;-72
2022/11/01 09:58:54;;;;;;;10.93;2.65;;;;;;;;;;5114461;27;20093;-71
2022/11/01 10:01:20;;;;;;;11.38;2.00;;;;;;;;;;5097778;27;20040;-70
2022/11/01 10:03:54;;;;;;;12.88;2.53;;;;;;;;;;5112206;27;20035;-71
2022/11/01 10:06:37;;;;;;;13.02;2.22;;;;;;;;;;5110659;27;20035;-71
2022/11/01 10:09:09;;;;;;;12.68;2.05;;;;;;;;;;5097220;28;20503;-72
2022/11/01 10:11:47;;;;;;;13.02;2.22;;;;;;;;;;5112063;27;20044;-72
2022/11/01 10:14:13;;;;;;;11.68;2.40;;;;;;;;;;5103634;27;20397;-73
2022/11/01 10:16:40;;;;;;;11.60;2.30;;;;;;;;;;5105483;28;20044;-72
2022/11/01 10:19:17;;;;;;;13.68;2.13;;;;;;;;;;5096417;28;20036;-73
2022/11/01 10:21:43;;;;;;;15.60;2.03;;;;;;;;;;5124918;27;20039;-71
2022/11/01 10:24:19;;;;;;;13.80;2.17;;;;;;;;;;5106509;27;20073;-71
2022/11/01 10:26:46;;;;;;;8.68;1.77;;;;;;;;;;5101541;27;20082;-78
2022/11/01 10:29:36;;;;;;;11.63;2.30;;;;;;;;;;5108184;27;20083;-76
2022/11/01 10:32:02;;;;;;;11.75;2.22;;;;;;;;;;5091368;27;20134;-76
2022/11/01 10:34:37;;;;;;;13.65;2.40;;;;;;;;;;5103774;27;20035;-70
2022/11/01 10:37:25;;;;;;;13.35;2.17;;;;;;;;;;5099641;28;20108;-71
2022/11/01 10:40:10;;;;;;;12.45;2.40;;;;;;;;;;5097078;27;20084;-74
2022/11/01 10:42:36;;;;;;;17.85;2.30;;;;;;;;;;5114823;27;20038;-71
2022/11/01 10:45:22;;;;;;;15.52;2.20;;;;;;;;;;5096003;28;20270;-77
2022/11/01 10:47:50;;;;;;;15.35;3.08;;;;;;;;;;5105514;27;20055;-77
2022/11/01 10:50:20;;;;;;;11.98;2.17;;;;;;;;;;5116907;27;20035;-77
2022/11/01 10:52:49;;;;;;;12.77;2.20;;;;;;;;;;5123691;27;20418;-71
2022/11/01 10:55:18;;;;;;;11.80;2.28;;;;;;;;;;5114236;27;20039;-72
2022/11/01 10:57:48;;;;;;;12.00;2.47;;;;;;;;;;5102106;27;20035;-72
2022/11/01 11:00:18;;;;;;;11.63;2.10;;;;;;;;;;5100167;27;20044;-71
2022/11/01 11:02:45;;;;;;;13.75;2.00;;;;;;;;;;5110487;27;20073;-71
2022/11/01 11:05:12;;;;;;;11.75;2.22;;;;;;;;;;5125868;27;20645;-72
2022/11/01 11:07:39;;;;;;;13.38;2.00;;;;;;;;;;5089277;28;20059;-78
2022/11/01 11:10:28;;;;;;;13.90;2.30;;;;;;;;;;5103624;27;20039;-79
2022/11/01 11:13:05;;;;;;;12.23;2.05;;;;;;;;;;5075503;28;20039;-80
2022/11/01 11:15:52;;;;;;;9.63;2.10;;;;;;;;;;5106604;27;20153;-71
2022/11/01 11:18:26;;;;;;;11.80;2.08;;;;;;;;;;5085383;28;20518;-72
2022/11/01 11:20:58;;;;;;;10.73;2.13;;;;;;;;;;5099277;27;20040;-71
2022/11/01 11:23:28;;;;;;;11.43;1.95;;;;;;;;;;5082922;28;20036;-72
2022/11/01 11:26:00;;;;;;;13.70;2.38;;;;;;;;;;5097134;27;20044;-72
2022/11/01 11:28:29;;;;;;;12.27;2.10;;;;;;;;;;5109715;27;20042;-72
2022/11/01 11:30:56;;;;;;;12.25;2.10;;;;;;;;;;5116120;27;20084;-72
2022/11/01 11:33:22;;;;;;;12.30;2.30;;;;;;;;;;5095973;28;20040;-72
2022/11/01 11:35:56;;;;;;;11.48;2.10;;;;;;;;;;5114722;27;20067;-71
2022/11/01 11:38:39;;;;;;;10.40;2.40;;;;;;;;;;5094289;28;20080;-71
2022/11/01 11:41:05;;;;;;;10.35;1.80;;;;;;;;;;5082570;28;20044;-72
2022/11/01 11:43:34;;;;;;;13.07;2.30;;;;;;;;;;5091501;28;20051;-71
2022/11/01 11:46:07;;;;;;;9.82;1.75;;;;;;;;;;5097865;27;20389;-72
2022/11/01 11:48:34;;;;;;;10.98;2.10;;;;;;;;;;5103024;27;20097;-73
2022/11/01 11:51:01;;;;;;;11.02;2.22;;;;;;;;;;5117316;27;20051;-72
2022/11/01 11:53:28;;;;;;;9.98;2.20;;;;;;;;;;5112513;27;20134;-73
2022/11/01 11:55:54;;;;;;;12.20;2.33;;;;;;;;;;5114941;27;20039;-73
2022/11/01 11:58:29;;;;;;;8.43;2.20;;;;;;;;;;5099754;27;20032;-73
2022/11/01 12:01:19;;;;;;;11.30;2.23;;;;;;;;;;5092664;27;20040;-72
2022/11/01 12:03:51;;;;;;;13.90;2.15;;;;;;;;;;5083709;28;20051;-71
2022/11/01 12:06:19;;;;;;;13.32;1.95;;;;;;;;;;5096908;27;20045;-72
2022/11/01 12:08:50;;;;;;;10.38;1.48;;;;;;;;;;5110106;27;20043;-72
2022/11/01 12:11:17;;;;;;;10.55;1.90;;;;;;;;;;5108888;28;20485;-72
2022/11/01 12:13:45;;;;;;;12.07;1.85;;;;;;;;;;5111694;28;20118;-71
2022/11/01 12:16:23;;;;;;;8.70;1.85;;;;;;;;;;5111302;27;20039;-72
2022/11/01 12:18:59;;;;;;;13.73;2.10;;;;;;;;;;5106951;27;20034;-71
2022/11/01 12:21:33;;;;;;;14.98;2.40;;;;;;;;;;5113817;27;20044;-78
2022/11/01 12:24:17;;;;;;;12.07;2.25;;;;;;;;;;5101249;28;20039;-79
2022/11/01 12:26:44;;;;;;;10.32;2.30;;;;;;;;;;5099424;27;20391;-76
2022/11/01 12:29:17;;;;;;;14.68;1.90;;;;;;;;;;5095987;27;20096;-77
2022/11/01 12:31:43;;;;;;;8.50;1.83;;;;;;;;;;5114011;27;20045;-77
2022/11/01 12:34:09;;;;;;;10.27;2.20;;;;;;;;;;5113935;27;20057;-77
2022/11/01 12:36:51;;;;;;;12.32;2.55;;;;;;;;;;5096825;27;21043;-78
2022/11/01 12:39:20;;;;;;;13.45;1.77;;;;;;;;;;5105496;27;20089;-77
2022/11/01 12:41:48;;;;;;;11.20;1.92;;;;;;;;;;5107333;28;20047;-76
2022/11/01 12:44:30;;;;;;;9.80;1.80;;;;;;;;;;5111947;27;20491;-77
2022/11/01 12:47:08;;;;;;;9.50;1.90;;;;;;;;;;5099437;28;20039;-75
2022/11/01 12:49:38;;;;;;;13.05;1.63;;;;;;;;;;5110839;27;20122;-76
2022/11/01 12:52:34;;;;;;;14.23;2.05;;;;;;;;;;5108320;28;20036;-76
2022/11/01 12:55:12;;;;;;;10.63;1.50;;;;;;;;;;5098539;28;20089;-76
2022/11/01 12:57:38;;;;;;;11.60;1.70;;;;;;;;;;5101110;28;20039;-71
2022/11/01 13:00:06;;;;;;;13.20;2.03;;;;;;;;;;5084520;28;20036;-70
2022/11/01 13:02:47;;;;;;;8.60;1.63;;;;;;;;;;5111447;27;20495;-71
2022/11/01 13:05:21;;;;;;;11.40;1.60;;;;;;;;;;5118071;27;20115;-76
2022/11/01 13:07:50;;;;;;;9.23;1.50;;;;;;;;;;5118069;27;20036;-71
2022/11/01 13:10:32;;;;;;;10.77;1.73;;;;;;;;;;5116281;27;20049;-71
2022/11/01 13:13:13;;;;;;;11.88;1.90;;;;;;;;;;5114375;27;20043;-71
2022/11/01 13:15:39;;;;;;;8.65;1.45;;;;;;;;;;5098070;27;20127;-70
2022/11/01 13:18:06;;;;;;;11.23;1.52;;;;;;;;;;5109261;28;20054;-71
2022/11/01 13:20:38;;;;;;;13.77;1.67;;;;;;;;;;5102840;27;20042;-71
2022/11/01 13:23:26;;;;;;;9.82;1.48;;;;;;;;;;5106222;27;20034;-71
2022/11/01 13:25:56;;;;;;;15.07;2.40;;;;;;;;;;5097811;28;20045;-70
2022/11/01 13:28:31;;;;;;;10.65;1.65;;;;;;;;;;5117005;27;20380;-77
2022/11/01 13:31:03;;;;;;;12.38;1.88;;;;;;;;;;5101617;27;20131;-76
2022/11/01 13:33:37;;;;;;;10.70;1.70;;;;;;;;;;5104955;27;20058;-70
2022/11/01 13:36:11;;;;;;;7.70;1.17;;;;;;;;;;5126010;27;20088;-71
2022/11/01 13:38:43;;;;;;;11.52;1.48;;;;;;;;;;5113395;27;20047;-70
2022/11/01 13:41:25;;;;;;;13.15;1.90;;;;;;;;;;5114592;27;20548;-71
2022/11/01 13:43:58;;;;;;;9.32;1.52;;;;;;;;;;5114909;28;20036;-70
2022/11/01 13:46:27;;;;;;;9.40;1.75;;;;;;;;;;5111534;27;20561;-71
2022/11/01 13:48:53;;;;;;;11.10;1.50;;;;;;;;;;5103723;28;20050;-70
2022/11/01 13:51:38;;;;;;;7.43;1.55;;;;;;;;;;5096978;28;20480;-71
2022/11/01 13:54:10;;;;;;;11.25;1.50;;;;;;;;;;5087170;27;20056;-71
2022/11/01 13:56:40;;;;;;;8.80;1.40;;;;;;;;;;5086583;28;20039;-71
2022/11/01 13:59:29;;;;;;;14.32;4.47;;;;;;;;;;5096820;28;20105;-71
2022/11/01 14:01:55;;;;;;;12.38;1.50;;;;;;;;;;5097167;28;20059;-72
2022/11/01 14:04:21;;;;;;;9.43;1.48;;;;;;;;;;5115465;28;20118;-70
2022/11/01 14:07:07;;;;;;;7.45;1.38;;;;;;;;;;5096931;28;20027;-71
2022/11/01 14:09:42;;;;;;;8.18;1.40;;;;;;;;;;5097519;28;20392;-71
2022/11/01 14:12:08;;;;;;;9.77;1.30;;;;;;;;;;5097109;28;20036;-77
2022/11/01 14:14:46;;;;;;;12.68;1.60;;;;;;;;;;5079777;28;20071;-70
2022/11/01 14:17:15;;;;;;;8.60;1.30;;;;;;;;;;5097479;27;20052;-71
2022/11/01 14:19:42;;;;;;;10.68;1.23;;;;;;;;;;5103368;28;20051;-71
2022/11/01 14:22:29;;;;;;;7.93;1.38;;;;;;;;;;5096714;28;20039;-71
2022/11/01 14:25:16;;;;;;;7.57;1.48;;;;;;;;;;5097092;28;20051;-71
2022/11/01 14:27:42;;;;;;;;;;;;;;;;;;5087542;27;20051;-70
2022/11/01 14:30:08;;;;;;;;;;;;;;;;;;5097360;28;19920;-70
2022/11/01 14:32:34;;;;;;;10.13;1.25;;;;;;;;;;5108599;27;19915;-71
2022/11/01 14:35:12;;;;;;;6.82;1.35;;;;;;;;;;5103067;27;20042;-76
2022/11/01 14:37:43;;;;;;;8.45;1.45;;;;;;;;;;5117401;27;20551;-76
2022/11/01 14:40:19;;;;;;;9.57;1.27;;;;;;;;;;5100306;27;20031;-75
2022/11/01 14:42:46;;;;;;;9.65;1.48;;;;;;;;;;5123705;27;20092;-76
2022/11/01 14:45:27;;;;;;;7.32;1.30;;;;;;;;;;5114463;27;20071;-77
2022/11/01 14:47:55;;;;;;;8.25;1.33;;;;;;;;;;5117183;27;20104;-75
2022/11/01 14:50:31;;;;;;;10.32;1.60;;;;;;;;;;5116516;27;20043;-76
2022/11/01 14:53:09;;;;;;;11.32;1.52;;;;;;;;;;5117140;27;20043;-76